sensor_id;sensor_type;location;lat;lon;timestamp;pressure;altitude;pressure_sealevel;temperature;humidity
26657;BME280;14279;50.010;8.260;2024-02-21T00:01:47;101380.66;;;9.15;79.13
26657;BME280;14279;50.010;8.260;2024-02-21T00:04:12;101372.81;;;9.16;79.12
26657;BME280;14279;50.010;8.260;2024-02-21T00:06:37;101371.94;;;9.17;79.29
26657;BME280;14279;50.010;8.260;2024-02-21T00:09:03;101367.50;;;9.23;78.87
26657;BME280;14279;50.010;8.260;2024-02-21T00:11:28;101368.69;;;9.09;79.46
26657;BME280;14279;50.010;8.260;2024-02-21T00:13:53;101360.28;;;8.98;79.67
26657;BME280;14279;50.010;8.260;2024-02-21T00:16:19;101353.28;;;9.01;80.02
26657;BME280;14279;50.010;8.260;2024-02-21T00:18:45;101351.47;;;9.05;79.90
26657;BME280;14279;50.010;8.260;2024-02-21T00:21:10;101349.00;;;8.99;80.24
26657;BME280;14279;50.010;8.260;2024-02-21T00:23:40;101342.78;;;9.06;79.75
26657;BME280;14279;50.010;8.260;2024-02-21T00:26:05;101328.22;;;8.99;80.16
26657;BME280;14279;50.010;8.260;2024-02-21T00:28:31;101325.81;;;8.91;80.14
26657;BME280;14279;50.010;8.260;2024-02-21T00:30:56;101332.78;;;8.89;80.52
26657;BME280;14279;50.010;8.260;2024-02-21T00:33:21;101324.41;;;8.78;80.83
26657;BME280;14279;50.010;8.260;2024-02-21T00:35:46;101317.66;;;8.69;81.25
26657;BME280;14279;50.010;8.260;2024-02-21T00:38:12;101303.03;;;8.66;81.57
26657;BME280;14279;50.010;8.260;2024-02-21T00:40:37;101290.81;;;8.70;81.87
26657;BME280;14279;50.010;8.260;2024-02-21T00:43:02;101283.16;;;8.65;81.54
26657;BME280;14279;50.010;8.260;2024-02-21T00:45:28;101283.84;;;8.72;81.18
26657;BME280;14279;50.010;8.260;2024-02-21T00:47:53;101284.91;;;8.65;81.21
26657;BME280;14279;50.010;8.260;2024-02-21T00:50:18;101287.53;;;8.63;81.42
26657;BME280;14279;50.010;8.260;2024-02-21T00:52:44;101284.91;;;8.65;81.38
26657;BME280;14279;50.010;8.260;2024-02-21T00:55:09;101284.78;;;8.69;81.28
26657;BME280;14279;50.010;8.260;2024-02-21T00:57:35;101294.09;;;8.78;80.57
26657;BME280;14279;50.010;8.260;2024-02-21T01:00:04;101294.84;;;8.83;80.27
26657;BME280;14279;50.010;8.260;2024-02-21T01:02:29;101286.72;;;8.97;79.55
26657;BME280;14279;50.010;8.260;2024-02-21T01:04:58;101294.66;;;8.91;79.90
26657;BME280;14279;50.010;8.260;2024-02-21T01:07:23;101297.31;;;8.88;80.12
26657;BME280;14279;50.010;8.260;2024-02-21T01:09:49;101294.72;;;8.88;80.02
26657;BME280;14279;50.010;8.260;2024-02-21T01:12:16;101301.75;;;8.84;80.19
26657;BME280;14279;50.010;8.260;2024-02-21T01:14:41;101303.72;;;8.73;80.85
26657;BME280;14279;50.010;8.260;2024-02-21T01:17:07;101300.94;;;8.81;80.76
26657;BME280;14279;50.010;8.260;2024-02-21T01:19:32;101309.16;;;9.00;79.92
26657;BME280;14279;50.010;8.260;2024-02-21T01:21:57;101314.22;;;9.05;79.81
26657;BME280;14279;50.010;8.260;2024-02-21T01:24:22;101310.09;;;8.97;80.31
26657;BME280;14279;50.010;8.260;2024-02-21T01:26:49;101297.19;;;8.94;80.41
26657;BME280;14279;50.010;8.260;2024-02-21T01:29:14;101292.63;;;9.04;79.43
26657;BME280;14279;50.010;8.260;2024-02-21T01:31:40;101284.69;;;9.10;78.75
26657;BME280;14279;50.010;8.260;2024-02-21T01:34:05;101286.47;;;9.07;78.65
26657;BME280;14279;50.010;8.260;2024-02-21T01:36:30;101290.72;;;9.11;78.42
26657;BME280;14279;50.010;8.260;2024-02-21T01:38:55;101284.56;;;9.15;77.84
26657;BME280;14279;50.010;8.260;2024-02-21T01:41:20;101279.56;;;9.06;78.32
26657;BME280;14279;50.010;8.260;2024-02-21T01:43:46;101270.72;;;9.14;78.04
26657;BME280;14279;50.010;8.260;2024-02-21T01:46:11;101263.91;;;9.10;77.28
26657;BME280;14279;50.010;8.260;2024-02-21T01:48:37;101265.06;;;8.98;77.74
26657;BME280;14279;50.010;8.260;2024-02-21T01:51:03;101260.56;;;9.03;77.67
26657;BME280;14279;50.010;8.260;2024-02-21T01:53:30;101264.97;;;9.01;77.53
26657;BME280;14279;50.010;8.260;2024-02-21T01:55:57;101244.91;;;9.07;77.10
26657;BME280;14279;50.010;8.260;2024-02-21T01:58:23;101239.84;;;9.02;77.36
26657;BME280;14279;50.010;8.260;2024-02-21T02:00:50;101238.16;;;9.01;77.57
26657;BME280;14279;50.010;8.260;2024-02-21T02:03:15;101240.13;;;8.91;77.39
26657;BME280;14279;50.010;8.260;2024-02-21T02:05:48;101246.00;;;8.98;77.29
26657;BME280;14279;50.010;8.260;2024-02-21T02:08:15;101240.19;;;8.88;77.44
26657;BME280;14279;50.010;8.260;2024-02-21T02:10:41;101239.28;;;8.91;77.29
26657;BME280;14279;50.010;8.260;2024-02-21T02:13:06;101239.38;;;8.86;77.38
26657;BME280;14279;50.010;8.260;2024-02-21T02:15:48;101230.09;;;8.77;77.73
26657;BME280;14279;50.010;8.260;2024-02-21T02:18:14;101230.69;;;8.89;77.80
26657;BME280;14279;50.010;8.260;2024-02-21T02:20:40;101228.09;;;8.89;77.01
26657;BME280;14279;50.010;8.260;2024-02-21T02:23:32;101226.41;;;8.86;77.03
26657;BME280;14279;50.010;8.260;2024-02-21T02:25:57;101233.44;;;8.81;76.93
26657;BME280;14279;50.010;8.260;2024-02-21T02:28:23;101231.84;;;8.77;76.89
26657;BME280;14279;50.010;8.260;2024-02-21T02:30:49;101216.16;;;8.80;77.17
26657;BME280;14279;50.010;8.260;2024-02-21T02:33:14;101221.41;;;8.78;77.01
26657;BME280;14279;50.010;8.260;2024-02-21T02:35:40;101215.41;;;8.76;76.92
26657;BME280;14279;50.010;8.260;2024-02-21T02:38:05;101211.28;;;8.67;77.52
26657;BME280;14279;50.010;8.260;2024-02-21T02:40:34;101202.56;;;8.70;77.66
26657;BME280;14279;50.010;8.260;2024-02-21T02:42:59;101193.19;;;8.64;77.86
26657;BME280;14279;50.010;8.260;2024-02-21T02:45:25;101206.25;;;8.61;77.87
26657;BME280;14279;50.010;8.260;2024-02-21T02:47:52;101213.88;;;8.67;77.95
26657;BME280;14279;50.010;8.260;2024-02-21T02:50:19;101215.44;;;8.75;77.56
26657;BME280;14279;50.010;8.260;2024-02-21T02:52:44;101208.28;;;8.83;77.07
26657;BME280;14279;50.010;8.260;2024-02-21T02:55:10;101196.34;;;8.77;77.69
26657;BME280;14279;50.010;8.260;2024-02-21T02:57:35;101189.41;;;8.78;77.79
26657;BME280;14279;50.010;8.260;2024-02-21T03:00:00;101186.75;;;8.79;77.56
26657;BME280;14279;50.010;8.260;2024-02-21T03:02:25;101189.41;;;8.78;77.76
26657;BME280;14279;50.010;8.260;2024-02-21T03:04:51;101187.72;;;8.75;78.04
26657;BME280;14279;50.010;8.260;2024-02-21T03:07:16;101186.06;;;8.72;77.96
26657;BME280;14279;50.010;8.260;2024-02-21T03:09:42;101189.44;;;8.76;78.24
26657;BME280;14279;50.010;8.260;2024-02-21T03:12:11;101191.94;;;8.79;77.71
26657;BME280;14279;50.010;8.260;2024-02-21T03:14:36;101179.91;;;8.77;77.86
26657;BME280;14279;50.010;8.260;2024-02-21T03:17:01;101172.91;;;8.79;77.73
26657;BME280;14279;50.010;8.260;2024-02-21T03:19:27;101174.66;;;8.78;77.73
26657;BME280;14279;50.010;8.260;2024-02-21T03:21:53;101170.44;;;8.74;78.15
26657;BME280;14279;50.010;8.260;2024-02-21T03:24:18;101166.13;;;8.75;78.48
26657;BME280;14279;50.010;8.260;2024-02-21T03:26:44;101147.34;;;8.65;79.18
26657;BME280;14279;50.010;8.260;2024-02-21T03:29:10;101144.16;;;8.53;79.74
26657;BME280;14279;50.010;8.260;2024-02-21T03:31:36;101139.94;;;8.48;80.15
26657;BME280;14279;50.010;8.260;2024-02-21T03:34:02;101133.81;;;8.52;80.25
26657;BME280;14279;50.010;8.260;2024-02-21T03:36:27;101130.41;;;8.50;80.35
26657;BME280;14279;50.010;8.260;2024-02-21T03:38:54;101139.94;;;8.48;80.59
26657;BME280;14279;50.010;8.260;2024-02-21T03:41:19;101135.63;;;8.47;80.57
26657;BME280;14279;50.010;8.260;2024-02-21T03:43:45;101131.34;;;8.46;81.14
26657;BME280;14279;50.010;8.260;2024-02-21T03:46:10;101133.16;;;8.42;81.45
26657;BME280;14279;50.010;8.260;2024-02-21T03:48:35;101137.44;;;8.43;81.58
26657;BME280;14279;50.010;8.260;2024-02-21T03:51:01;101147.94;;;8.38;82.07
26657;BME280;14279;50.010;8.260;2024-02-21T03:53:26;101149.78;;;8.33;82.27
26657;BME280;14279;50.010;8.260;2024-02-21T03:55:51;101155.78;;;8.35;82.49
26657;BME280;14279;50.010;8.260;2024-02-21T03:58:17;101152.28;;;8.38;82.35
26657;BME280;14279;50.010;8.260;2024-02-21T04:00:42;101152.28;;;8.38;82.63
26657;BME280;14279;50.010;8.260;2024-02-21T04:03:07;101151.34;;;8.40;82.66
26657;BME280;14279;50.010;8.260;2024-02-21T04:05:33;101146.50;;;8.26;83.07
26657;BME280;14279;50.010;8.260;2024-02-21T04:07:58;101140.34;;;8.31;83.03
26657;BME280;14279;50.010;8.260;2024-02-21T04:10:23;101137.81;;;8.29;83.38
26657;BME280;14279;50.010;8.260;2024-02-21T04:12:49;101129.28;;;8.22;83.45
26657;BME280;14279;50.010;8.260;2024-02-21T04:15:16;101118.72;;;8.32;83.35
26657;BME280;14279;50.010;8.260;2024-02-21T04:17:41;101122.38;;;8.23;83.58
26657;BME280;14279;50.010;8.260;2024-02-21T04:20:14;101112.97;;;8.19;83.89
26657;BME280;14279;50.010;8.260;2024-02-21T04:22:39;101121.41;;;8.27;83.60
26657;BME280;14279;50.010;8.260;2024-02-21T04:25:05;101125.88;;;8.22;83.83
26657;BME280;14279;50.010;8.260;2024-02-21T04:27:30;101130.91;;;8.28;83.56
26657;BME280;14279;50.010;8.260;2024-02-21T04:29:55;101117.88;;;8.30;83.43
26657;BME280;14279;50.010;8.260;2024-02-21T04:32:21;101117.06;;;8.27;83.53
26657;BME280;14279;50.010;8.260;2024-02-21T04:34:46;101106.81;;;8.23;83.21
26657;BME280;14279;50.010;8.260;2024-02-21T04:37:11;101096.59;;;8.17;83.31
26657;BME280;14279;50.010;8.260;2024-02-21T04:39:36;101091.53;;;8.12;83.41
26657;BME280;14279;50.010;8.260;2024-02-21T04:42:02;101088.84;;;8.15;83.65
26657;BME280;14279;50.010;8.260;2024-02-21T04:44:27;101087.09;;;8.16;82.97
26657;BME280;14279;50.010;8.260;2024-02-21T04:46:52;101090.56;;;8.16;82.97
26657;BME280;14279;50.010;8.260;2024-02-21T04:49:18;101092.13;;;8.22;82.48
26657;BME280;14279;50.010;8.260;2024-02-21T04:51:43;101077.59;;;8.16;81.95
26657;BME280;14279;50.010;8.260;2024-02-21T04:54:08;101075.88;;;8.15;81.94
26657;BME280;14279;50.010;8.260;2024-02-21T04:56:34;101067.84;;;8.24;81.32
26657;BME280;14279;50.010;8.260;2024-02-21T04:58:59;101073.09;;;8.23;81.28
26657;BME280;14279;50.010;8.260;2024-02-21T05:01:24;101067.94;;;8.21;81.29
26657;BME280;14279;50.010;8.260;2024-02-21T05:03:49;101075.13;;;8.10;81.33
26657;BME280;14279;50.010;8.260;2024-02-21T05:06:15;101075.91;;;8.13;81.60
26657;BME280;14279;50.010;8.260;2024-02-21T05:08:40;101070.97;;;8.03;81.66
26657;BME280;14279;50.010;8.260;2024-02-21T05:11:05;101070.97;;;8.03;82.34
26657;BME280;14279;50.010;8.260;2024-02-21T05:13:31;101063.41;;;7.95;82.78
26657;BME280;14279;50.010;8.260;2024-02-21T05:15:56;101071.88;;;8.02;82.42
26657;BME280;14279;50.010;8.260;2024-02-21T05:18:21;101079.72;;;7.98;82.62
26657;BME280;14279;50.010;8.260;2024-02-21T05:20:47;101078.94;;;7.95;82.84
26657;BME280;14279;50.010;8.260;2024-02-21T05:23:12;101091.84;;;7.98;82.44
26657;BME280;14279;50.010;8.260;2024-02-21T05:25:37;101088.94;;;8.12;81.95
26657;BME280;14279;50.010;8.260;2024-02-21T05:28:03;101085.25;;;8.21;81.41
26657;BME280;14279;50.010;8.260;2024-02-21T05:30:28;101080.19;;;8.16;81.48
26657;BME280;14279;50.010;8.260;2024-02-21T05:32:54;101085.47;;;8.11;81.46
26657;BME280;14279;50.010;8.260;2024-02-21T05:35:19;101076.69;;;8.17;81.29
26657;BME280;14279;50.010;8.260;2024-02-21T05:37:46;101075.88;;;8.15;81.31
26657;BME280;14279;50.010;8.260;2024-02-21T05:40:13;101070.69;;;8.15;81.60
26657;BME280;14279;50.010;8.260;2024-02-21T05:42:38;101063.06;;;8.09;81.66
26657;BME280;14279;50.010;8.260;2024-02-21T05:45:04;101062.38;;;8.01;82.02
26657;BME280;14279;50.010;8.260;2024-02-21T05:47:29;101054.59;;;8.01;81.73
26657;BME280;14279;50.010;8.260;2024-02-21T05:49:55;101051.09;;;8.03;81.69
26657;BME280;14279;50.010;8.260;2024-02-21T05:52:20;101057.31;;;7.96;81.55
26657;BME280;14279;50.010;8.260;2024-02-21T05:54:45;101060.84;;;7.93;81.95
26657;BME280;14279;50.010;8.260;2024-02-21T05:57:11;101053.06;;;7.93;81.79
26657;BME280;14279;50.010;8.260;2024-02-21T05:59:38;101049.66;;;7.91;81.43
26657;BME280;14279;50.010;8.260;2024-02-21T06:02:05;101042.84;;;7.86;81.24
26657;BME280;14279;50.010;8.260;2024-02-21T06:04:30;101045.38;;;7.90;80.86
26657;BME280;14279;50.010;8.260;2024-02-21T06:06:55;101036.03;;;7.83;80.93
26657;BME280;14279;50.010;8.260;2024-02-21T06:09:21;101037.84;;;7.79;80.77
26657;BME280;14279;50.010;8.260;2024-02-21T06:11:46;101042.16;;;7.80;80.92
26657;BME280;14279;50.010;8.260;2024-02-21T06:14:13;101039.56;;;7.80;80.17
26657;BME280;14279;50.010;8.260;2024-02-21T06:16:38;101050.75;;;7.81;79.81
26657;BME280;14279;50.010;8.260;2024-02-21T06:19:04;101040.13;;;7.93;78.82
26657;BME280;14279;50.010;8.260;2024-02-21T06:21:29;101041.88;;;7.91;78.75
26657;BME280;14279;50.010;8.260;2024-02-21T06:23:55;101035.84;;;7.91;78.32
26657;BME280;14279;50.010;8.260;2024-02-21T06:26:20;101035.72;;;7.95;77.88
26657;BME280;14279;50.010;8.260;2024-02-21T06:28:45;101021.22;;;7.88;78.41
26657;BME280;14279;50.010;8.260;2024-02-21T06:31:12;101023.81;;;7.88;78.36
26657;BME280;14279;50.010;8.260;2024-02-21T06:33:37;101020.28;;;7.91;78.02
26657;BME280;14279;50.010;8.260;2024-02-21T06:36:02;101010.94;;;7.83;78.68
26657;BME280;14279;50.010;8.260;2024-02-21T06:38:27;101005.84;;;7.80;78.39
26657;BME280;14279;50.010;8.260;2024-02-21T06:40:53;101009.22;;;7.82;78.31
26657;BME280;14279;50.010;8.260;2024-02-21T06:43:20;101013.47;;;7.87;78.09
26657;BME280;14279;50.010;8.260;2024-02-21T06:45:46;101012.31;;;7.98;78.06
26657;BME280;14279;50.010;8.260;2024-02-21T06:48:15;101019.91;;;8.06;77.89
26657;BME280;14279;50.010;8.260;2024-02-21T06:50:40;101026.44;;;8.21;77.32
26657;BME280;14279;50.010;8.260;2024-02-21T06:53:06;101015.50;;;8.10;78.10
26657;BME280;14279;50.010;8.260;2024-02-21T06:55:31;101022.88;;;7.91;78.06
26657;BME280;14279;50.010;8.260;2024-02-21T06:57:56;101023.47;;;8.02;77.71
26657;BME280;14279;50.010;8.260;2024-02-21T07:00:21;101023.53;;;7.99;77.00
26657;BME280;14279;50.010;8.260;2024-02-21T07:02:48;101005.88;;;8.15;76.69
26657;BME280;14279;50.010;8.260;2024-02-21T07:05:13;101011.69;;;7.89;76.83
26657;BME280;14279;50.010;8.260;2024-02-21T07:07:39;101012.38;;;7.95;77.28
26657;BME280;14279;50.010;8.260;2024-02-21T07:10:06;101010.59;;;7.97;76.91
26657;BME280;14279;50.010;8.260;2024-02-21T07:12:31;101000.13;;;8.02;75.87
26657;BME280;14279;50.010;8.260;2024-02-21T07:14:57;101009.78;;;7.95;75.76
26657;BME280;14279;50.010;8.260;2024-02-21T07:17:22;101009.41;;;8.11;75.06
26657;BME280;14279;50.010;8.260;2024-02-21T07:19:47;101028.47;;;8.08;75.27
26657;BME280;14279;50.010;8.260;2024-02-21T07:22:12;101022.25;;;8.16;74.67
26657;BME280;14279;50.010;8.260;2024-02-21T07:24:37;101018.66;;;8.21;75.09
26657;BME280;14279;50.010;8.260;2024-02-21T07:27:03;101024.72;;;8.22;74.49
26657;BME280;14279;50.010;8.260;2024-02-21T07:29:30;101020.28;;;8.25;74.49
26657;BME280;14279;50.010;8.260;2024-02-21T07:31:55;101019.31;;;8.30;74.03
26657;BME280;14279;50.010;8.260;2024-02-21T07:34:20;101017.16;;;8.12;74.66
26657;BME280;14279;50.010;8.260;2024-02-21T07:36:46;101020.78;;;8.40;74.37
26657;BME280;14279;50.010;8.260;2024-02-21T07:39:11;101017.53;;;8.32;73.62
26657;BME280;14279;50.010;8.260;2024-02-21T07:41:37;101009.75;;;8.32;74.30
26657;BME280;14279;50.010;8.260;2024-02-21T07:44:04;101011.47;;;8.31;73.45
26657;BME280;14279;50.010;8.260;2024-02-21T07:46:30;101005.44;;;8.31;73.73
26657;BME280;14279;50.010;8.260;2024-02-21T07:48:55;101008.66;;;8.40;73.84
26657;BME280;14279;50.010;8.260;2024-02-21T07:51:21;101010.28;;;8.45;73.07
26657;BME280;14279;50.010;8.260;2024-02-21T07:53:46;101001.47;;;8.52;73.19
26657;BME280;14279;50.010;8.260;2024-02-21T07:56:13;101004.09;;;8.50;73.82
26657;BME280;14279;50.010;8.260;2024-02-21T07:58:42;100996.41;;;8.46;73.61
26657;BME280;14279;50.010;8.260;2024-02-21T08:01:08;100999.34;;;8.66;73.17
26657;BME280;14279;50.010;8.260;2024-02-21T08:03:33;100999.91;;;8.78;73.02
26657;BME280;14279;50.010;8.260;2024-02-21T08:05:59;100994.91;;;8.70;72.58
26657;BME280;14279;50.010;8.260;2024-02-21T08:08:24;100994.53;;;8.52;73.05
26657;BME280;14279;50.010;8.260;2024-02-21T08:10:50;100987.63;;;8.51;73.10
26657;BME280;14279;50.010;8.260;2024-02-21T08:13:15;100986.00;;;8.49;72.72
26657;BME280;14279;50.010;8.260;2024-02-21T08:15:41;100982.69;;;8.42;73.45
26657;BME280;14279;50.010;8.260;2024-02-21T08:18:07;100973.19;;;8.41;73.19
26657;BME280;14279;50.010;8.260;2024-02-21T08:20:32;100983.94;;;8.60;73.08
26657;BME280;14279;50.010;8.260;2024-02-21T08:22:57;100972.94;;;8.52;72.91
26657;BME280;14279;50.010;8.260;2024-02-21T08:25:23;100971.75;;;8.62;73.32
26657;BME280;14279;50.010;8.260;2024-02-21T08:27:48;100967.53;;;8.58;73.36
26657;BME280;14279;50.010;8.260;2024-02-21T08:30:14;100976.03;;;8.65;73.86
26657;BME280;14279;50.010;8.260;2024-02-21T08:32:39;100965.34;;;8.42;73.33
26657;BME280;14279;50.010;8.260;2024-02-21T08:35:04;100959.81;;;8.56;73.26
26657;BME280;14279;50.010;8.260;2024-02-21T08:37:30;100961.44;;;8.61;73.15
26657;BME280;14279;50.010;8.260;2024-02-21T08:39:55;100960.75;;;8.54;73.19
26657;BME280;14279;50.010;8.260;2024-02-21T08:42:21;100964.94;;;8.58;73.35
26657;BME280;14279;50.010;8.260;2024-02-21T08:44:46;100966.50;;;8.65;73.50
26657;BME280;14279;50.010;8.260;2024-02-21T08:47:11;100957.81;;;8.66;72.81
26657;BME280;14279;50.010;8.260;2024-02-21T08:49:37;100961.38;;;8.62;74.10
26657;BME280;14279;50.010;8.260;2024-02-21T08:52:03;100957.59;;;8.74;72.95
26657;BME280;14279;50.010;8.260;2024-02-21T08:54:28;100954.19;;;8.72;73.50
26657;BME280;14279;50.010;8.260;2024-02-21T08:56:54;100945.00;;;8.60;73.24
26657;BME280;14279;50.010;8.260;2024-02-21T08:59:19;100945.59;;;9.00;72.22
26657;BME280;14279;50.010;8.260;2024-02-21T09:01:45;100934.69;;;8.89;72.54
26657;BME280;14279;50.010;8.260;2024-02-21T09:04:10;100927.41;;;9.00;71.98
26657;BME280;14279;50.010;8.260;2024-02-21T09:06:36;100931.03;;;8.94;71.79
26657;BME280;14279;50.010;8.260;2024-02-21T09:09:04;100923.25;;;8.94;71.73
26657;BME280;14279;50.010;8.260;2024-02-21T09:11:29;100928.63;;;8.88;72.13
26657;BME280;14279;50.010;8.260;2024-02-21T09:13:55;100921.50;;;8.95;71.74
26657;BME280;14279;50.010;8.260;2024-02-21T09:16:20;100913.19;;;8.83;72.52
26657;BME280;14279;50.010;8.260;2024-02-21T09:18:45;100921.59;;;8.92;72.29
26657;BME280;14279;50.010;8.260;2024-02-21T09:21:12;100917.91;;;8.99;71.70
26657;BME280;14279;50.010;8.260;2024-02-21T09:23:37;100913.19;;;9.12;71.39
26657;BME280;14279;50.010;8.260;2024-02-21T09:26:02;100896.72;;;9.13;70.50
26657;BME280;14279;50.010;8.260;2024-02-21T09:28:29;100896.97;;;9.03;70.85
26657;BME280;14279;50.010;8.260;2024-02-21T09:30:54;100902.72;;;9.15;69.89
26657;BME280;14279;50.010;8.260;2024-02-21T09:33:20;100903.78;;;9.08;70.62
26657;BME280;14279;50.010;8.260;2024-02-21T09:35:45;100896.44;;;9.22;70.21
26657;BME280;14279;50.010;8.260;2024-02-21T09:38:10;100897.97;;;9.28;69.88
26657;BME280;14279;50.010;8.260;2024-02-21T09:40:36;100903.00;;;9.32;69.88
26657;BME280;14279;50.010;8.260;2024-02-21T09:43:04;100895.72;;;9.17;70.09
26657;BME280;14279;50.010;8.260;2024-02-21T09:45:32;100896.78;;;9.38;69.96
26657;BME280;14279;50.010;8.260;2024-02-21T09:50:36;100883.44;;;9.49;68.35
26657;BME280;14279;50.010;8.260;2024-02-21T09:53:04;100886.84;;;9.76;67.67
26657;BME280;14279;50.010;8.260;2024-02-21T09:55:32;100878.78;;;9.59;68.13
26657;BME280;14279;50.010;8.260;2024-02-21T09:58:01;100873.50;;;9.60;68.34
26657;BME280;14279;50.010;8.260;2024-02-21T10:00:26;100871.22;;;9.51;68.51
26657;BME280;14279;50.010;8.260;2024-02-21T10:02:53;100870.66;;;9.43;68.61
26657;BME280;14279;50.010;8.260;2024-02-21T10:05:18;100869.47;;;9.26;68.81
26657;BME280;14279;50.010;8.260;2024-02-21T10:07:44;100862.84;;;9.43;68.51
26657;BME280;14279;50.010;8.260;2024-02-21T10:10:09;100859.34;;;9.69;67.86
26657;BME280;14279;50.010;8.260;2024-02-21T10:12:34;100862.97;;;9.90;67.10
26657;BME280;14279;50.010;8.260;2024-02-21T10:15:04;100863.16;;;9.84;68.29
26657;BME280;14279;50.010;8.260;2024-02-21T10:17:29;100856.16;;;9.86;67.95
26657;BME280;14279;50.010;8.260;2024-02-21T10:19:55;100861.47;;;9.83;68.49
26657;BME280;14279;50.010;8.260;2024-02-21T10:22:20;100846.69;;;10.09;67.53
26657;BME280;14279;50.010;8.260;2024-02-21T10:24:46;100842.19;;;9.89;68.39
26657;BME280;14279;50.010;8.260;2024-02-21T10:27:12;100838.56;;;9.95;68.28
26657;BME280;14279;50.010;8.260;2024-02-21T10:29:38;100837.19;;;10.08;68.08
26657;BME280;14279;50.010;8.260;2024-02-21T10:32:10;100831.81;;;10.13;66.14
26657;BME280;14279;50.010;8.260;2024-02-21T10:34:37;100813.66;;;10.11;66.48
26657;BME280;14279;50.010;8.260;2024-02-21T10:37:03;100826.50;;;10.40;65.99
26657;BME280;14279;50.010;8.260;2024-02-21T10:39:30;100810.06;;;10.61;65.16
26657;BME280;14279;50.010;8.260;2024-02-21T10:41:59;100822.16;;;10.16;66.52
26657;BME280;14279;50.010;8.260;2024-02-21T10:44:28;100818.25;;;10.04;66.93
26657;BME280;14279;50.010;8.260;2024-02-21T10:46:55;100816.72;;;10.22;66.19
26657;BME280;14279;50.010;8.260;2024-02-21T10:49:22;100807.25;;;10.45;65.18
26657;BME280;14279;50.010;8.260;2024-02-21T10:51:54;100805.91;;;10.57;64.62
26657;BME280;14279;50.010;8.260;2024-02-21T10:54:44;100797.13;;;10.36;64.84
26657;BME280;14279;50.010;8.260;2024-02-21T10:57:13;100796.63;;;10.26;65.46
26657;BME280;14279;50.010;8.260;2024-02-21T10:59:39;100794.34;;;10.18;66.56
26657;BME280;14279;50.010;8.260;2024-02-21T11:02:05;100787.81;;;10.30;66.23
26657;BME280;14279;50.010;8.260;2024-02-21T11:04:31;100779.81;;;10.59;64.95
26657;BME280;14279;50.010;8.260;2024-02-21T11:06:58;100783.09;;;10.64;64.82
26657;BME280;14279;50.010;8.260;2024-02-21T11:09:33;100774.25;;;10.22;65.65
26657;BME280;14279;50.010;8.260;2024-02-21T11:12:01;100785.25;;;10.29;65.98
26657;BME280;14279;50.010;8.260;2024-02-21T11:14:27;100769.84;;;10.24;65.51
26657;BME280;14279;50.010;8.260;2024-02-21T11:16:53;100768.41;;;10.61;65.09
26657;BME280;14279;50.010;8.260;2024-02-21T11:19:21;100763.19;;;10.61;64.59
26657;BME280;14279;50.010;8.260;2024-02-21T11:21:46;100753.34;;;10.47;64.81
26657;BME280;14279;50.010;8.260;2024-02-21T11:24:13;100751.28;;;10.33;64.57
26657;BME280;14279;50.010;8.260;2024-02-21T11:26:39;100745.25;;;10.09;65.40
26657;BME280;14279;50.010;8.260;2024-02-21T11:29:07;100757.91;;;10.42;64.70
26657;BME280;14279;50.010;8.260;2024-02-21T11:31:44;100753.09;;;10.53;64.14
26657;BME280;14279;50.010;8.260;2024-02-21T11:34:11;100740.16;;;10.52;64.07
26657;BME280;14279;50.010;8.260;2024-02-21T11:36:46;100732.28;;;10.53;64.33
26657;BME280;14279;50.010;8.260;2024-02-21T11:39:13;100732.72;;;10.65;64.47
26657;BME280;14279;50.010;8.260;2024-02-21T11:41:42;100723.41;;;10.80;64.19
26657;BME280;14279;50.010;8.260;2024-02-21T11:44:08;100716.69;;;10.74;64.10
26657;BME280;14279;50.010;8.260;2024-02-21T11:46:33;100715.19;;;10.68;64.48
26657;BME280;14279;50.010;8.260;2024-02-21T11:48:58;100713.25;;;10.74;64.27
26657;BME280;14279;50.010;8.260;2024-02-21T11:51:26;100707.19;;;10.73;64.05
26657;BME280;14279;50.010;8.260;2024-02-21T11:53:53;100707.69;;;10.61;64.90
26657;BME280;14279;50.010;8.260;2024-02-21T11:56:18;100698.78;;;10.87;64.31
26657;BME280;14279;50.010;8.260;2024-02-21T11:58:46;100697.47;;;10.56;65.25
26657;BME280;14279;50.010;8.260;2024-02-21T12:01:12;100688.69;;;10.59;65.82
26657;BME280;14279;50.010;8.260;2024-02-21T12:03:37;100679.56;;;10.48;66.74
26657;BME280;14279;50.010;8.260;2024-02-21T12:06:03;100664.56;;;10.55;66.19
26657;BME280;14279;50.010;8.260;2024-02-21T12:08:40;100664.31;;;10.39;66.53
26657;BME280;14279;50.010;8.260;2024-02-21T12:11:16;100663.88;;;10.50;65.94
26657;BME280;14279;50.010;8.260;2024-02-21T12:13:41;100653.22;;;10.34;66.70
26657;BME280;14279;50.010;8.260;2024-02-21T12:16:07;100647.19;;;10.33;66.96
26657;BME280;14279;50.010;8.260;2024-02-21T12:18:32;100641.69;;;10.41;67.05
26657;BME280;14279;50.010;8.260;2024-02-21T12:20:58;100633.44;;;10.30;67.05
26657;BME280;14279;50.010;8.260;2024-02-21T12:23:26;100630.25;;;10.66;66.31
26657;BME280;14279;50.010;8.260;2024-02-21T12:25:52;100623.06;;;10.50;66.50
26657;BME280;14279;50.010;8.260;2024-02-21T12:28:20;100610.00;;;10.73;66.19
26657;BME280;14279;50.010;8.260;2024-02-21T12:30:47;100624.97;;;10.67;66.67
26657;BME280;14279;50.010;8.260;2024-02-21T12:33:12;100614.19;;;10.77;66.45
26657;BME280;14279;50.010;8.260;2024-02-21T12:35:39;100597.69;;;10.76;66.73
26657;BME280;14279;50.010;8.260;2024-02-21T12:38:04;100592.25;;;10.62;67.24
26657;BME280;14279;50.010;8.260;2024-02-21T12:40:30;100585.19;;;10.85;66.96
26657;BME280;14279;50.010;8.260;2024-02-21T12:43:00;100590.44;;;11.04;66.44
26657;BME280;14279;50.010;8.260;2024-02-21T12:45:29;100573.09;;;10.83;66.90
26657;BME280;14279;50.010;8.260;2024-02-21T12:47:55;100583.06;;;10.74;67.05
26657;BME280;14279;50.010;8.260;2024-02-21T12:50:20;100577.09;;;10.51;67.64
26657;BME280;14279;50.010;8.260;2024-02-21T12:52:47;100574.53;;;10.70;67.40
26657;BME280;14279;50.010;8.260;2024-02-21T12:55:14;100575.25;;;10.74;67.23